createdAt,value
2019-04-14T00:00:27.341Z,35.10
2019-04-14T00:03:09.444Z,32.37
2019-04-14T00:05:38.643Z,32.07
2019-04-14T00:08:06.968Z,36.47
2019-04-14T00:10:35.419Z,35.27
2019-04-14T00:13:04.616Z,31.87
2019-04-14T00:15:40.460Z,34.93
2019-04-14T00:18:05.458Z,31.23
2019-04-14T00:20:35.814Z,31.63
2019-04-14T00:23:04.525Z,35.97
2019-04-14T00:25:33.190Z,36.47
2019-04-14T00:28:02.952Z,32.73
2019-04-14T00:30:31.708Z,35.23
2019-04-14T00:33:02.028Z,34.23
2019-04-14T00:35:32.245Z,42.40
2019-04-14T00:38:19.514Z,31.00
2019-04-14T00:40:49.938Z,37.83
2019-04-14T00:43:20.018Z,32.13
2019-04-14T00:45:53.642Z,35.27
2019-04-14T00:48:22.947Z,37.30
2019-04-14T00:50:52.147Z,32.53
2019-04-14T00:53:20.912Z,32.00
2019-04-14T00:55:49.529Z,37.70
2019-04-14T00:58:19.195Z,27.60
2019-04-14T01:00:47.921Z,36.53
2019-04-14T01:03:16.170Z,32.13
2019-04-14T01:05:45.789Z,35.60
2019-04-14T01:08:14.460Z,34.37
2019-04-14T01:10:43.291Z,32.13
2019-04-14T01:13:13.189Z,32.83
2019-04-14T01:15:51.524Z,29.77
2019-04-14T01:18:12.633Z,34.27
2019-04-14T01:20:41.163Z,33.33
2019-04-14T01:23:10.612Z,29.10
2019-04-14T01:25:39.168Z,43.67
2019-04-14T01:28:08.878Z,28.90
2019-04-14T01:30:37.348Z,32.50
2019-04-14T01:33:05.584Z,35.10
2019-04-14T01:35:34.127Z,32.27
2019-04-14T01:38:03.696Z,37.37
2019-04-14T01:40:33.712Z,36.03
2019-04-14T01:43:02.407Z,32.17
2019-04-14T01:45:32.151Z,29.47
2019-04-14T01:48:01.709Z,33.03
2019-04-14T01:50:45.210Z,35.53
2019-04-14T01:53:16.119Z,30.53
2019-04-14T01:55:55.286Z,30.73
2019-04-14T01:58:25.497Z,39.97
2019-04-14T02:01:01.948Z,30.57
2019-04-14T02:03:30.565Z,30.93
2019-04-14T02:06:00.305Z,29.17
2019-04-14T02:08:28.982Z,38.47
2019-04-14T02:10:58.503Z,36.93
2019-04-14T02:13:26.980Z,28.50
2019-04-14T02:15:55.593Z,27.53
2019-04-14T02:18:25.090Z,34.63
2019-04-14T02:20:53.826Z,33.93
2019-04-14T02:23:23.530Z,31.13
2019-04-14T02:25:53.526Z,28.47
2019-04-14T02:28:22.133Z,32.90
2019-04-14T02:31:00.163Z,29.03
2019-04-14T02:33:46.903Z,31.70
2019-04-14T02:36:22.092Z,34.33
2019-04-14T02:41:18.855Z,32.13
2019-04-14T02:44:01.647Z,45.73
2019-04-14T02:48:50.792Z,34.47
2019-04-14T02:51:20.237Z,30.43
2019-04-14T02:53:54.130Z,34.07
2019-04-14T03:01:35.333Z,28.43
2019-04-14T03:03:44.097Z,23.10
2019-04-14T03:06:14.698Z,38.77
2019-04-14T03:08:51.212Z,28.90
2019-04-14T03:11:18.240Z,29.33
2019-04-14T03:13:51.149Z,33.80
2019-04-14T03:18:57.720Z,28.87
2019-04-14T03:21:34.722Z,30.37
2019-04-14T03:26:54.569Z,36.13
2019-04-14T03:29:52.227Z,32.73
2019-04-14T03:37:31.963Z,35.60
2019-04-14T03:39:44.321Z,30.30
2019-04-14T03:42:17.176Z,33.57
2019-04-14T03:44:41.824Z,31.90
2019-04-14T03:47:08.764Z,29.97
2019-04-14T03:49:42.923Z,28.93
2019-04-14T03:52:03.705Z,31.40
2019-04-14T03:54:25.915Z,32.60
2019-04-14T03:56:53.358Z,36.33
2019-04-14T03:59:22.065Z,34.87
2019-04-14T04:01:50.376Z,35.37
2019-04-14T04:04:19.009Z,32.80
2019-04-14T04:06:48.593Z,33.23
2019-04-14T04:09:17.230Z,38.10
2019-04-14T04:11:45.564Z,34.23
2019-04-14T04:14:14.042Z,35.37
2019-04-14T04:16:44.261Z,32.87
2019-04-14T04:19:18.575Z,34.93
2019-04-14T04:22:02.039Z,36.87
2019-04-14T04:24:39.100Z,30.33
2019-04-14T04:27:11.822Z,34.60
2019-04-14T04:29:41.966Z,41.20
2019-04-14T04:32:25.120Z,36.67
2019-04-14T04:35:10.709Z,28.57
2019-04-14T04:37:41.200Z,36.00
2019-04-14T04:40:17.925Z,40.53
2019-04-14T04:42:46.554Z,38.47
2019-04-14T04:45:14.916Z,34.60
2019-04-14T04:47:43.219Z,37.70
2019-04-14T04:50:12.799Z,38.97
2019-04-14T04:52:41.209Z,37.90
2019-04-14T04:55:09.501Z,36.07
2019-04-14T04:57:38.076Z,39.27
2019-04-14T05:00:07.085Z,38.90
2019-04-14T05:02:35.813Z,38.50
2019-04-14T05:05:05.647Z,38.47
2019-04-14T05:07:33.824Z,41.37
2019-04-14T05:10:10.909Z,34.17
2019-04-14T05:12:41.410Z,31.67
2019-04-14T05:15:31.079Z,38.30
2019-04-14T05:18:00.450Z,37.20
2019-04-14T05:20:29.220Z,45.07
2019-04-14T05:22:57.465Z,52.07
2019-04-14T05:25:25.731Z,34.20
2019-04-14T05:27:53.948Z,38.03
2019-04-14T05:30:22.198Z,39.13
2019-04-14T05:32:50.746Z,41.73
2019-04-14T05:35:20.352Z,43.87
2019-04-14T05:37:48.749Z,42.17
2019-04-14T05:40:17.005Z,43.23
2019-04-14T05:42:45.317Z,48.00
2019-04-14T05:45:13.568Z,35.80
2019-04-14T05:47:41.792Z,42.13
2019-04-14T05:50:11.690Z,46.03
2019-04-14T05:52:40.493Z,34.83
2019-04-14T05:55:08.911Z,48.93
2019-04-14T05:57:37.552Z,41.73
2019-04-14T06:00:08.157Z,36.23
2019-04-14T06:02:37.639Z,38.63
2019-04-14T06:05:06.530Z,34.77
2019-04-14T06:07:35.475Z,47.27
2019-04-14T06:10:04.893Z,50.00
2019-04-14T06:12:33.113Z,39.30
2019-04-14T06:15:01.429Z,39.93
2019-04-14T06:17:29.976Z,39.90
2019-04-14T06:19:58.229Z,35.43
2019-04-14T06:22:26.454Z,43.87
2019-04-14T06:24:54.697Z,41.87
2019-04-14T06:27:22.916Z,49.20
2019-04-14T06:29:53.209Z,34.17
2019-04-14T06:32:26.317Z,30.20
2019-04-14T06:35:11.295Z,41.03
2019-04-14T06:37:49.932Z,42.80
2019-04-14T06:40:19.489Z,37.57
2019-04-14T06:42:47.703Z,55.27
2019-04-14T06:45:15.952Z,44.23
2019-04-14T06:47:44.570Z,42.47
2019-04-14T06:50:13.208Z,39.63
2019-04-14T06:52:41.766Z,50.77
2019-04-14T06:55:10.425Z,33.33
2019-04-14T06:57:38.973Z,33.63
2019-04-14T07:00:07.765Z,39.47
2019-04-14T07:02:36.016Z,32.40
2019-04-14T07:05:05.300Z,33.03
2019-04-14T07:07:33.543Z,34.43
2019-04-14T07:10:04.169Z,35.80
2019-04-14T07:12:32.753Z,37.37
2019-04-14T07:15:01.321Z,35.97
2019-04-14T07:17:29.928Z,27.30
2019-04-14T07:20:02.238Z,35.83
2019-04-14T07:22:28.380Z,24.63
2019-04-14T07:24:56.956Z,40.80
2019-04-14T07:27:25.532Z,35.50
2019-04-14T07:29:58.288Z,39.70
2019-04-14T07:32:28.185Z,41.33
2019-04-14T07:34:58.381Z,38.80
2019-04-14T07:37:37.560Z,37.27
2019-04-14T07:40:09.195Z,35.97
2019-04-14T07:42:48.409Z,28.17
2019-04-14T07:45:21.229Z,37.40
2019-04-14T07:47:51.421Z,42.90
2019-04-14T07:50:24.308Z,33.97
2019-04-14T07:53:00.225Z,32.80
2019-04-14T07:55:36.189Z,44.30
2019-04-14T07:58:22.500Z,38.90
2019-04-14T08:01:04.913Z,36.53
2019-04-14T08:03:34.801Z,40.63
2019-04-14T08:06:03.818Z,31.27
2019-04-14T08:08:32.397Z,32.80
2019-04-14T08:11:00.945Z,35.90
2019-04-14T08:13:29.199Z,36.73
2019-04-14T08:15:57.741Z,26.03
2019-04-14T08:18:26.323Z,44.87
2019-04-14T08:20:54.532Z,36.93
2019-04-14T08:23:23.104Z,36.90
2019-04-14T08:25:51.650Z,41.43
2019-04-14T08:28:21.383Z,32.83
2019-04-14T08:30:50.413Z,29.80
2019-04-14T08:33:18.650Z,40.83
2019-04-14T08:35:47.330Z,31.70
2019-04-14T08:38:15.916Z,40.43
2019-04-14T08:40:44.132Z,39.20
2019-04-14T08:43:32.406Z,41.60
2019-04-14T08:46:02.704Z,37.53
2019-04-14T08:48:45.006Z,47.03
2019-04-14T08:51:15.229Z,40.73
2019-04-14T08:53:45.442Z,39.67
2019-04-14T08:56:18.298Z,33.50
2019-04-14T08:58:50.941Z,43.87
2019-04-14T09:01:23.928Z,43.97
2019-04-14T09:04:00.000Z,31.60
2019-04-14T09:06:30.190Z,38.57
2019-04-14T09:09:00.412Z,37.87
2019-04-14T09:11:36.468Z,33.20
2019-04-14T09:14:05.046Z,39.10
2019-04-14T09:16:33.594Z,42.13
2019-04-14T09:19:07.466Z,36.00
2019-04-14T09:21:31.776Z,37.43
2019-04-14T09:24:00.361Z,36.97
2019-04-14T09:26:28.904Z,32.23
2019-04-14T09:28:57.487Z,33.57
2019-04-14T09:31:26.115Z,38.60
2019-04-14T09:33:54.677Z,36.10
2019-04-14T09:36:23.229Z,36.80
2019-04-14T09:38:51.448Z,41.03
2019-04-14T09:41:20.016Z,37.90
2019-04-14T09:43:48.565Z,41.27
2019-04-14T09:46:17.142Z,36.53
2019-04-14T09:48:45.771Z,27.23
2019-04-14T09:51:14.422Z,31.07
2019-04-14T09:53:42.969Z,34.20
2019-04-14T09:56:11.544Z,31.40
2019-04-14T09:58:40.093Z,31.90
2019-04-14T10:01:09.298Z,34.90
2019-04-14T10:03:37.840Z,26.33
2019-04-14T10:06:06.484Z,31.83
2019-04-14T10:08:35.057Z,30.63
2019-04-14T10:11:03.272Z,32.93
2019-04-14T10:13:31.525Z,35.50
2019-04-14T10:16:00.082Z,34.93
2019-04-14T10:18:28.789Z,30.13
2019-04-14T10:20:57.336Z,28.60
2019-04-14T10:23:25.985Z,31.20
2019-04-14T10:25:54.553Z,37.30
2019-04-14T10:28:23.105Z,33.70
2019-04-14T10:30:51.692Z,31.20
2019-04-14T10:33:20.241Z,38.40
2019-04-14T10:35:48.785Z,27.10
2019-04-14T10:38:17.361Z,25.03
2019-04-14T10:40:45.581Z,37.20
2019-04-14T10:43:13.833Z,30.83
2019-04-14T10:45:42.125Z,27.80
2019-04-14T10:48:10.840Z,27.07
2019-04-14T10:50:39.384Z,25.83
2019-04-14T10:53:07.961Z,29.53
2019-04-14T10:55:36.508Z,32.67
2019-04-14T10:58:05.162Z,24.53
2019-04-14T11:00:33.705Z,34.23
2019-04-14T11:03:02.288Z,26.93
2019-04-14T11:05:32.480Z,28.77
2019-04-14T11:08:01.075Z,31.40
2019-04-14T11:10:29.608Z,24.10
2019-04-14T11:12:58.201Z,31.37
2019-04-14T11:15:26.750Z,33.17
2019-04-14T11:17:55.383Z,23.13
2019-04-14T11:20:23.876Z,23.87
2019-04-14T11:23:02.872Z,21.53
2019-04-14T11:25:22.716Z,26.67
2019-04-14T11:27:51.296Z,23.30
2019-04-14T11:30:21.492Z,26.83
2019-04-14T11:32:51.716Z,25.27
2019-04-14T11:35:30.770Z,29.40
2019-04-14T11:38:03.690Z,23.40
2019-04-14T11:40:36.344Z,30.80
2019-04-14T11:43:05.069Z,25.60
2019-04-14T11:45:33.684Z,25.90
2019-04-14T11:48:02.414Z,30.63
2019-04-14T11:50:31.028Z,29.30
2019-04-14T11:52:59.274Z,25.83
2019-04-14T11:55:27.902Z,23.93
2019-04-14T11:57:56.549Z,27.53
2019-04-14T12:00:26.404Z,25.50
2019-04-14T12:02:59.072Z,21.33
2019-04-14T12:05:38.105Z,26.53
2019-04-14T12:08:11.386Z,24.23
2019-04-14T12:10:39.932Z,30.57
2019-04-14T12:13:08.181Z,21.80
2019-04-14T12:15:36.732Z,27.13
2019-04-14T12:18:05.315Z,21.87
2019-04-14T12:20:33.869Z,22.30
2019-04-14T12:23:02.456Z,26.37
2019-04-14T12:25:30.752Z,21.20
2019-04-14T12:28:00.367Z,21.03
2019-04-14T12:30:29.157Z,19.00
2019-04-14T12:32:57.368Z,20.27
2019-04-14T12:35:25.956Z,18.77
2019-04-14T12:37:54.569Z,23.37
2019-04-14T12:40:23.493Z,28.27
2019-04-14T12:42:53.700Z,26.63
2019-04-14T12:45:40.144Z,26.23
2019-04-14T12:48:28.563Z,21.97
2019-04-14T12:50:58.829Z,19.17
2019-04-14T12:53:27.376Z,26.67
2019-04-14T12:55:56.020Z,22.33
2019-04-14T12:58:38.209Z,25.17
2019-04-14T13:01:14.665Z,26.33
2019-04-14T13:03:43.316Z,25.17
2019-04-14T13:06:11.965Z,25.37
2019-04-14T13:08:40.517Z,24.03
2019-04-14T13:11:09.164Z,22.50
2019-04-14T13:13:37.793Z,19.30
2019-04-14T13:16:06.440Z,24.80
2019-04-14T13:18:35.056Z,25.23
2019-04-14T13:21:03.704Z,25.13
2019-04-14T13:23:32.254Z,28.77
2019-04-14T13:26:00.832Z,26.93
2019-04-14T13:28:29.380Z,26.37
2019-04-14T13:30:58.029Z,28.30
2019-04-14T13:33:26.585Z,24.30
2019-04-14T13:35:55.173Z,26.13
2019-04-14T13:38:23.715Z,21.80
2019-04-14T13:40:52.364Z,25.53
2019-04-14T13:43:20.913Z,27.77
2019-04-14T13:45:49.559Z,28.90
2019-04-14T13:48:18.116Z,23.77
2019-04-14T13:50:46.698Z,26.37
2019-04-14T13:53:15.241Z,27.90
2019-04-14T13:55:43.839Z,28.13
2019-04-14T13:58:12.372Z,29.27
2019-04-14T14:00:41.021Z,29.37
2019-04-14T14:03:09.636Z,23.47
2019-04-14T14:05:38.220Z,29.03
2019-04-14T14:08:06.841Z,29.90
2019-04-14T14:10:35.423Z,24.20
2019-04-14T14:13:14.489Z,24.27
2019-04-14T14:16:00.973Z,25.47
2019-04-14T14:18:31.238Z,26.33
2019-04-14T14:21:01.131Z,30.07
2019-04-14T14:23:33.881Z,25.03
2019-04-14T14:26:06.918Z,20.93
2019-04-14T14:28:38.466Z,23.07
2019-04-14T14:31:05.768Z,24.97
2019-04-14T14:33:34.342Z,25.60
2019-04-14T14:36:02.889Z,26.73
2019-04-14T14:38:31.464Z,23.50
2019-04-14T14:41:01.886Z,26.00
2019-04-14T14:43:30.460Z,23.87
2019-04-14T14:46:00.671Z,24.17
2019-04-14T14:48:30.876Z,22.73
2019-04-14T14:51:06.996Z,25.63
2019-04-14T14:53:35.648Z,28.13
2019-04-14T14:56:04.433Z,24.50
2019-04-14T14:58:33.013Z,24.17
2019-04-14T15:01:01.704Z,29.80
2019-04-14T15:03:30.281Z,36.53
2019-04-14T15:05:58.831Z,23.60
2019-04-14T15:08:27.408Z,24.33
2019-04-14T15:10:56.017Z,24.13
2019-04-14T15:13:24.572Z,26.80
2019-04-14T15:15:53.150Z,20.63
2019-04-14T15:18:21.693Z,23.27
2019-04-14T15:20:50.272Z,24.50
2019-04-14T15:23:24.936Z,21.93
2019-04-14T15:25:49.117Z,20.23
2019-04-14T15:28:17.666Z,21.97
2019-04-14T15:30:46.239Z,18.70
2019-04-14T15:33:14.792Z,23.87
2019-04-14T15:35:43.370Z,23.80
2019-04-14T15:38:11.921Z,24.73
2019-04-14T15:40:40.501Z,20.60
2019-04-14T15:43:09.218Z,20.60
2019-04-14T15:45:37.800Z,24.53
2019-04-14T15:48:06.381Z,22.57
2019-04-14T15:50:34.726Z,18.07
2019-04-14T15:53:03.257Z,19.47
2019-04-14T15:55:31.843Z,20.93
2019-04-14T15:58:02.023Z,19.53
2019-04-14T16:00:48.946Z,18.03
2019-04-14T16:03:35.237Z,21.77
2019-04-14T16:06:20.771Z,21.90
2019-04-14T16:08:56.748Z,20.73
2019-04-14T16:11:35.968Z,20.13
2019-04-14T16:14:09.084Z,23.53
2019-04-14T16:16:55.851Z,21.90
2019-04-14T16:19:28.737Z,19.20
2019-04-14T16:21:57.294Z,21.57
2019-04-14T16:24:25.849Z,27.13
2019-04-14T16:26:55.753Z,24.30
2019-04-14T16:29:25.937Z,20.00
2019-04-14T16:31:58.619Z,26.97
2019-04-14T16:34:28.804Z,19.53
2019-04-14T16:36:57.820Z,24.63
2019-04-14T16:39:26.393Z,21.23
2019-04-14T16:41:54.621Z,25.03
2019-04-14T16:44:23.192Z,20.33
2019-04-14T16:46:51.786Z,17.40
2019-04-14T16:49:20.400Z,22.53
2019-04-14T16:51:50.615Z,23.83
2019-04-14T16:54:32.801Z,20.27
2019-04-14T16:57:19.684Z,18.80
2019-04-14T16:59:48.332Z,23.27
2019-04-14T17:02:16.881Z,20.20
2019-04-14T17:04:45.468Z,19.33
2019-04-14T17:07:14.041Z,23.93
2019-04-14T17:09:42.588Z,20.93
2019-04-14T17:12:11.307Z,20.13
2019-04-14T17:14:41.569Z,17.60
2019-04-14T17:17:23.840Z,18.57
2019-04-14T17:20:02.957Z,17.93
2019-04-14T17:22:42.150Z,17.77
2019-04-14T17:25:24.323Z,20.43
2019-04-14T17:27:54.541Z,22.37
2019-04-14T17:30:30.949Z,16.87
2019-04-14T17:33:15.929Z,19.67
2019-04-14T17:35:51.868Z,22.23
2019-04-14T17:38:22.085Z,24.03
2019-04-14T17:40:58.281Z,24.43
2019-04-14T17:43:28.502Z,24.03
2019-04-14T17:45:58.699Z,24.63
2019-04-14T17:48:37.727Z,21.83
2019-04-14T17:51:13.909Z,21.97
2019-04-14T17:53:44.129Z,20.90
2019-04-14T17:56:14.317Z,22.67
2019-04-14T17:58:50.286Z,18.23
2019-04-14T18:01:20.473Z,22.67
2019-04-14T18:03:50.688Z,22.30
2019-04-14T18:06:27.225Z,22.47
2019-04-14T18:09:00.247Z,24.47
2019-04-14T18:11:39.460Z,23.07
2019-04-14T18:14:18.676Z,27.23
2019-04-14T18:17:04.137Z,23.33
2019-04-14T18:19:34.362Z,25.57
2019-04-14T18:22:02.985Z,23.17
2019-04-14T18:24:41.660Z,23.70
2019-04-14T18:27:01.761Z,20.80
2019-04-14T18:29:31.982Z,22.57
2019-04-14T18:32:20.301Z,22.17
2019-04-14T18:35:02.460Z,22.37
2019-04-14T18:37:32.333Z,22.83
2019-04-14T18:40:08.317Z,20.07
2019-04-14T18:42:44.262Z,20.77
2019-04-14T18:45:17.504Z,22.90
2019-04-14T18:47:47.365Z,21.40
2019-04-14T18:50:33.289Z,22.10
2019-04-14T18:53:06.444Z,24.13
2019-04-14T18:55:53.225Z,21.83
2019-04-14T18:58:38.324Z,24.97
2019-04-14T19:01:08.544Z,26.27
2019-04-14T19:03:37.089Z,23.50
2019-04-14T19:06:05.404Z,23.30
2019-04-14T19:08:33.953Z,22.00
2019-04-14T19:11:04.176Z,20.13
2019-04-14T19:13:37.169Z,24.47
2019-04-14T19:16:13.028Z,23.40
2019-04-14T19:18:43.218Z,19.30
2019-04-14T19:21:13.432Z,27.20
2019-04-14T19:23:41.981Z,22.60
2019-04-14T19:26:10.624Z,22.63
2019-04-14T19:28:39.175Z,18.93
2019-04-14T19:31:07.743Z,21.67
2019-04-14T19:33:35.955Z,21.27
2019-04-14T19:36:04.677Z,22.17
2019-04-14T19:38:33.225Z,25.17
2019-04-14T19:41:01.804Z,22.10
2019-04-14T19:43:30.344Z,22.47
2019-04-14T19:45:59.194Z,22.90
2019-04-14T19:48:27.737Z,22.50
2019-04-14T19:50:56.313Z,24.40
2019-04-14T19:53:24.930Z,24.67
2019-04-14T19:55:53.504Z,25.27
2019-04-14T19:58:22.120Z,27.67
2019-04-14T20:00:50.696Z,23.07
2019-04-14T20:03:19.243Z,25.50
2019-04-14T20:05:47.823Z,26.87
2019-04-14T20:08:16.041Z,28.13
2019-04-14T20:10:44.772Z,27.77
2019-04-14T20:13:13.393Z,30.93
2019-04-14T20:15:43.716Z,29.67
2019-04-14T20:18:13.943Z,35.40
2019-04-14T20:21:00.561Z,28.50
2019-04-14T20:23:42.716Z,29.93
2019-04-14T20:26:29.482Z,32.27
2019-04-14T20:29:02.025Z,33.93
2019-04-14T20:31:40.716Z,36.13
2019-04-14T20:34:09.034Z,29.13
2019-04-14T20:36:37.351Z,35.77
2019-04-14T20:39:08.757Z,32.30
2019-04-14T20:41:37.482Z,31.20
2019-04-14T20:44:05.829Z,38.57
2019-04-14T20:46:34.373Z,43.23
2019-04-14T20:49:03.025Z,33.40
2019-04-14T20:51:31.644Z,32.03
2019-04-14T20:54:00.292Z,37.70
2019-04-14T20:56:28.541Z,32.87
2019-04-14T20:58:56.760Z,36.07
2019-04-14T21:01:26.948Z,31.80
2019-04-14T21:04:06.416Z,36.57
2019-04-14T21:06:39.633Z,36.00
2019-04-14T21:09:09.925Z,34.67
2019-04-14T21:11:40.117Z,32.83
2019-04-14T21:14:22.485Z,31.10
2019-04-14T21:17:04.868Z,39.83
2019-04-14T21:19:37.957Z,43.77
2019-04-14T21:22:25.734Z,49.60
2019-04-14T21:24:55.946Z,38.93
2019-04-14T21:27:26.116Z,45.27
2019-04-14T21:30:08.301Z,45.70
2019-04-14T21:32:53.358Z,49.23
2019-04-14T21:35:39.768Z,44.00
2019-04-14T21:38:09.933Z,46.03
2019-04-14T21:40:42.758Z,50.07
2019-04-14T21:43:11.403Z,43.03
2019-04-14T21:45:39.953Z,45.80
2019-04-14T21:48:08.537Z,46.23
2019-04-14T21:50:37.439Z,51.20
2019-04-14T21:53:06.044Z,43.73
2019-04-14T21:55:34.998Z,53.00
2019-04-14T21:58:14.013Z,47.20
2019-04-14T22:00:53.082Z,45.53
2019-04-14T22:03:23.337Z,51.40
2019-04-14T22:05:53.556Z,52.30
2019-04-14T22:08:25.410Z,47.13
2019-04-14T22:10:55.909Z,44.93
2019-04-14T22:13:24.695Z,45.50
2019-04-14T22:15:53.285Z,54.03
2019-04-14T22:18:21.932Z,46.43
2019-04-14T22:20:50.513Z,53.93
2019-04-14T22:23:19.203Z,56.13
2019-04-14T22:25:47.768Z,57.30
2019-04-14T22:28:16.424Z,65.10
2019-04-14T22:30:45.065Z,55.40
2019-04-14T22:33:13.681Z,49.53
2019-04-14T22:35:42.257Z,52.13
2019-04-14T22:38:10.809Z,48.10
2019-04-14T22:40:39.385Z,49.77
2019-04-14T22:43:07.605Z,59.17
2019-04-14T22:45:36.253Z,54.77
2019-04-14T22:48:05.109Z,58.87
2019-04-14T22:50:33.680Z,53.03
2019-04-14T22:53:01.955Z,48.30
2019-04-14T22:55:30.485Z,56.97
2019-04-14T22:57:59.034Z,58.83
2019-04-14T23:00:41.141Z,49.50
2019-04-14T23:03:27.828Z,55.33
2019-04-14T23:06:15.856Z,54.63
2019-04-14T23:08:46.048Z,55.27
2019-04-14T23:11:19.236Z,49.20
2019-04-14T23:13:49.095Z,51.90
2019-04-14T23:16:34.255Z,52.90
2019-04-14T23:19:13.226Z,54.23
2019-04-14T23:21:46.249Z,60.70
2019-04-14T23:24:16.436Z,51.97
2019-04-14T23:26:52.459Z,54.80
2019-04-14T23:29:15.444Z,49.30
2019-04-14T23:31:44.195Z,42.23
2019-04-14T23:34:12.539Z,54.50
2019-04-14T23:36:41.201Z,49.70
2019-04-14T23:39:11.457Z,52.10
2019-04-14T23:41:40.073Z,42.53
2019-04-14T23:44:08.653Z,56.33
2019-04-14T23:46:37.301Z,53.23
2019-04-14T23:49:06.183Z,53.87
2019-04-14T23:51:35.399Z,53.77
2019-04-14T23:54:04.325Z,56.47
2019-04-14T23:56:33.068Z,56.73
2019-04-14T23:59:01.646Z,49.87
